sensor_id;sensor_type;location;lat;lon;timestamp;P1;durP1;ratioP1;P2;durP2;ratioP2
52668;SDS011;59898;52.786;6.892;2023-04-15T00:01:58;11.18;;;6.93;;
52668;SDS011;59898;52.786;6.892;2023-04-15T00:05:19;8.25;;;6.85;;
52668;SDS011;59898;52.786;6.892;2023-04-15T00:08:40;12.57;;;7.75;;
52668;SDS011;59898;52.786;6.892;2023-04-15T00:12:01;12.75;;;6.53;;
52668;SDS011;59898;52.786;6.892;2023-04-15T00:15:22;10.55;;;6.93;;
52668;SDS011;59898;52.786;6.892;2023-04-15T00:18:43;9.20;;;6.70;;
52668;SDS011;59898;52.786;6.892;2023-04-15T00:22:03;10.15;;;6.28;;
52668;SDS011;59898;52.786;6.892;2023-04-15T00:25:25;7.25;;;6.03;;
52668;SDS011;59898;52.786;6.892;2023-04-15T00:28:45;15.18;;;6.82;;
52668;SDS011;59898;52.786;6.892;2023-04-15T00:32:06;9.27;;;6.68;;
52668;SDS011;59898;52.786;6.892;2023-04-15T00:35:28;12.32;;;6.25;;
52668;SDS011;59898;52.786;6.892;2023-04-15T00:38:51;10.38;;;5.95;;
52668;SDS011;59898;52.786;6.892;2023-04-15T00:42:12;10.95;;;6.55;;
52668;SDS011;59898;52.786;6.892;2023-04-15T00:45:33;10.65;;;6.70;;
52668;SDS011;59898;52.786;6.892;2023-04-15T00:48:53;10.85;;;6.50;;
52668;SDS011;59898;52.786;6.892;2023-04-15T00:52:15;12.45;;;7.40;;
52668;SDS011;59898;52.786;6.892;2023-04-15T00:55:36;12.48;;;7.72;;
52668;SDS011;59898;52.786;6.892;2023-04-15T00:58:57;10.75;;;7.55;;
52668;SDS011;59898;52.786;6.892;2023-04-15T01:02:18;13.43;;;7.88;;
52668;SDS011;59898;52.786;6.892;2023-04-15T01:05:39;11.90;;;7.85;;
52668;SDS011;59898;52.786;6.892;2023-04-15T01:09:00;13.25;;;8.25;;
52668;SDS011;59898;52.786;6.892;2023-04-15T01:12:22;11.70;;;8.32;;
52668;SDS011;59898;52.786;6.892;2023-04-15T01:19:07;11.52;;;7.60;;
52668;SDS011;59898;52.786;6.892;2023-04-15T01:22:29;9.18;;;8.05;;
52668;SDS011;59898;52.786;6.892;2023-04-15T01:25:52;14.88;;;9.45;;
52668;SDS011;59898;52.786;6.892;2023-04-15T01:29:13;9.80;;;7.80;;
52668;SDS011;59898;52.786;6.892;2023-04-15T01:32:34;11.85;;;8.50;;
52668;SDS011;59898;52.786;6.892;2023-04-15T01:35:56;11.93;;;8.82;;
52668;SDS011;59898;52.786;6.892;2023-04-15T01:39:16;10.20;;;8.50;;
52668;SDS011;59898;52.786;6.892;2023-04-15T01:42:38;12.55;;;8.73;;
52668;SDS011;59898;52.786;6.892;2023-04-15T01:45:59;10.80;;;8.30;;
52668;SDS011;59898;52.786;6.892;2023-04-15T01:49:19;10.88;;;9.07;;
52668;SDS011;59898;52.786;6.892;2023-04-15T01:52:40;10.77;;;8.20;;
52668;SDS011;59898;52.786;6.892;2023-04-15T01:56:01;10.35;;;7.43;;
52668;SDS011;59898;52.786;6.892;2023-04-15T01:59:22;12.18;;;8.88;;
52668;SDS011;59898;52.786;6.892;2023-04-15T02:02:42;14.55;;;8.82;;
52668;SDS011;59898;52.786;6.892;2023-04-15T02:06:03;9.00;;;7.88;;
52668;SDS011;59898;52.786;6.892;2023-04-15T02:09:25;12.25;;;8.35;;
52668;SDS011;59898;52.786;6.892;2023-04-15T02:12:45;12.20;;;7.07;;
52668;SDS011;59898;52.786;6.892;2023-04-15T02:16:18;11.57;;;8.10;;
52668;SDS011;59898;52.786;6.892;2023-04-15T02:19:39;10.15;;;8.35;;
52668;SDS011;59898;52.786;6.892;2023-04-15T02:23:00;13.52;;;7.53;;
52668;SDS011;59898;52.786;6.892;2023-04-15T02:26:21;12.65;;;8.02;;
52668;SDS011;59898;52.786;6.892;2023-04-15T02:29:42;12.88;;;8.15;;
52668;SDS011;59898;52.786;6.892;2023-04-15T02:33:04;10.75;;;7.72;;
52668;SDS011;59898;52.786;6.892;2023-04-15T02:36:26;10.07;;;8.38;;
52668;SDS011;59898;52.786;6.892;2023-04-15T02:39:48;9.35;;;7.35;;
52668;SDS011;59898;52.786;6.892;2023-04-15T02:43:09;10.85;;;8.05;;
52668;SDS011;59898;52.786;6.892;2023-04-15T02:46:30;10.93;;;8.13;;
52668;SDS011;59898;52.786;6.892;2023-04-15T02:49:51;14.27;;;8.15;;
52668;SDS011;59898;52.786;6.892;2023-04-15T02:53:12;14.40;;;9.18;;
52668;SDS011;59898;52.786;6.892;2023-04-15T02:56:33;12.55;;;9.00;;
52668;SDS011;59898;52.786;6.892;2023-04-15T02:59:54;10.57;;;8.40;;
52668;SDS011;59898;52.786;6.892;2023-04-15T03:03:15;13.73;;;8.93;;
52668;SDS011;59898;52.786;6.892;2023-04-15T03:06:36;16.95;;;9.20;;
52668;SDS011;59898;52.786;6.892;2023-04-15T03:09:56;13.93;;;9.77;;
52668;SDS011;59898;52.786;6.892;2023-04-15T03:13:17;15.75;;;9.05;;
52668;SDS011;59898;52.786;6.892;2023-04-15T03:16:38;12.68;;;10.18;;
52668;SDS011;59898;52.786;6.892;2023-04-15T03:20:00;14.05;;;9.70;;
52668;SDS011;59898;52.786;6.892;2023-04-15T03:23:22;14.05;;;9.55;;
52668;SDS011;59898;52.786;6.892;2023-04-15T03:26:43;16.23;;;9.73;;
52668;SDS011;59898;52.786;6.892;2023-04-15T03:30:04;14.02;;;9.45;;
52668;SDS011;59898;52.786;6.892;2023-04-15T03:33:25;14.27;;;9.80;;
52668;SDS011;59898;52.786;6.892;2023-04-15T03:36:46;15.95;;;11.20;;
52668;SDS011;59898;52.786;6.892;2023-04-15T03:40:07;17.70;;;10.73;;
52668;SDS011;59898;52.786;6.892;2023-04-15T03:43:28;15.88;;;10.20;;
52668;SDS011;59898;52.786;6.892;2023-04-15T03:46:49;12.57;;;9.90;;
52668;SDS011;59898;52.786;6.892;2023-04-15T03:50:10;12.27;;;10.00;;
52668;SDS011;59898;52.786;6.892;2023-04-15T03:53:30;15.00;;;11.05;;
52668;SDS011;59898;52.786;6.892;2023-04-15T03:56:51;12.20;;;10.05;;
52668;SDS011;59898;52.786;6.892;2023-04-15T04:00:12;13.65;;;10.00;;
52668;SDS011;59898;52.786;6.892;2023-04-15T04:03:32;17.75;;;10.98;;
52668;SDS011;59898;52.786;6.892;2023-04-15T04:06:53;12.43;;;9.95;;
52668;SDS011;59898;52.786;6.892;2023-04-15T04:10:14;14.82;;;10.35;;
52668;SDS011;59898;52.786;6.892;2023-04-15T04:13:35;13.93;;;10.18;;
52668;SDS011;59898;52.786;6.892;2023-04-15T04:16:56;14.25;;;10.55;;
52668;SDS011;59898;52.786;6.892;2023-04-15T04:20:16;15.15;;;10.70;;
52668;SDS011;59898;52.786;6.892;2023-04-15T04:23:37;14.02;;;10.02;;
52668;SDS011;59898;52.786;6.892;2023-04-15T04:26:58;14.57;;;9.90;;
52668;SDS011;59898;52.786;6.892;2023-04-15T04:30:19;15.27;;;10.45;;
52668;SDS011;59898;52.786;6.892;2023-04-15T04:33:41;14.40;;;10.68;;
52668;SDS011;59898;52.786;6.892;2023-04-15T04:37:02;15.45;;;10.88;;
52668;SDS011;59898;52.786;6.892;2023-04-15T04:40:22;15.57;;;10.20;;
52668;SDS011;59898;52.786;6.892;2023-04-15T04:43:43;15.73;;;11.15;;
52668;SDS011;59898;52.786;6.892;2023-04-15T04:47:04;13.68;;;11.15;;
52668;SDS011;59898;52.786;6.892;2023-04-15T04:50:26;12.25;;;10.48;;
52668;SDS011;59898;52.786;6.892;2023-04-15T04:53:47;15.15;;;11.23;;
52668;SDS011;59898;52.786;6.892;2023-04-15T04:57:07;15.82;;;12.45;;
52668;SDS011;59898;52.786;6.892;2023-04-15T05:00:28;14.68;;;11.40;;
52668;SDS011;59898;52.786;6.892;2023-04-15T05:03:49;17.77;;;11.75;;
52668;SDS011;59898;52.786;6.892;2023-04-15T05:07:10;14.57;;;11.77;;
52668;SDS011;59898;52.786;6.892;2023-04-15T05:10:31;16.70;;;11.88;;
52668;SDS011;59898;52.786;6.892;2023-04-15T05:13:52;13.82;;;10.48;;
52668;SDS011;59898;52.786;6.892;2023-04-15T05:17:12;14.60;;;11.32;;
52668;SDS011;59898;52.786;6.892;2023-04-15T05:20:33;16.48;;;11.38;;
52668;SDS011;59898;52.786;6.892;2023-04-15T05:23:54;14.27;;;11.18;;
52668;SDS011;59898;52.786;6.892;2023-04-15T05:27:14;14.95;;;10.50;;
52668;SDS011;59898;52.786;6.892;2023-04-15T05:30:35;17.58;;;11.52;;
52668;SDS011;59898;52.786;6.892;2023-04-15T05:33:56;12.40;;;9.90;;
52668;SDS011;59898;52.786;6.892;2023-04-15T05:37:17;16.17;;;11.55;;
52668;SDS011;59898;52.786;6.892;2023-04-15T05:40:39;15.27;;;11.63;;
52668;SDS011;59898;52.786;6.892;2023-04-15T05:44:00;13.88;;;10.75;;
52668;SDS011;59898;52.786;6.892;2023-04-15T05:47:21;15.68;;;11.70;;
52668;SDS011;59898;52.786;6.892;2023-04-15T05:50:41;17.08;;;12.77;;
52668;SDS011;59898;52.786;6.892;2023-04-15T05:54:05;18.27;;;12.27;;
52668;SDS011;59898;52.786;6.892;2023-04-15T05:57:26;16.33;;;12.32;;
52668;SDS011;59898;52.786;6.892;2023-04-15T06:00:46;18.85;;;12.82;;
52668;SDS011;59898;52.786;6.892;2023-04-15T06:04:07;15.40;;;12.38;;
52668;SDS011;59898;52.786;6.892;2023-04-15T06:07:28;16.05;;;11.77;;
52668;SDS011;59898;52.786;6.892;2023-04-15T06:10:49;14.38;;;11.02;;
52668;SDS011;59898;52.786;6.892;2023-04-15T06:14:10;16.85;;;11.68;;
52668;SDS011;59898;52.786;6.892;2023-04-15T06:17:31;19.33;;;13.02;;
52668;SDS011;59898;52.786;6.892;2023-04-15T06:20:51;16.95;;;12.10;;
52668;SDS011;59898;52.786;6.892;2023-04-15T06:24:12;16.52;;;11.70;;
52668;SDS011;59898;52.786;6.892;2023-04-15T06:27:33;17.70;;;11.93;;
52668;SDS011;59898;52.786;6.892;2023-04-15T06:30:53;17.50;;;12.93;;
52668;SDS011;59898;52.786;6.892;2023-04-15T06:34:14;15.80;;;11.88;;
52668;SDS011;59898;52.786;6.892;2023-04-15T06:37:35;16.98;;;11.57;;
52668;SDS011;59898;52.786;6.892;2023-04-15T06:40:56;17.70;;;12.43;;
52668;SDS011;59898;52.786;6.892;2023-04-15T06:44:16;17.85;;;12.63;;
52668;SDS011;59898;52.786;6.892;2023-04-15T06:47:37;14.82;;;12.02;;
52668;SDS011;59898;52.786;6.892;2023-04-15T06:50:58;16.38;;;12.18;;
52668;SDS011;59898;52.786;6.892;2023-04-15T06:54:19;16.05;;;11.55;;
52668;SDS011;59898;52.786;6.892;2023-04-15T06:57:39;15.60;;;11.10;;
52668;SDS011;59898;52.786;6.892;2023-04-15T07:01:00;16.80;;;11.00;;
52668;SDS011;59898;52.786;6.892;2023-04-15T07:04:21;15.07;;;10.88;;
52668;SDS011;59898;52.786;6.892;2023-04-15T07:07:42;15.95;;;11.35;;
52668;SDS011;59898;52.786;6.892;2023-04-15T07:11:02;16.02;;;12.25;;
52668;SDS011;59898;52.786;6.892;2023-04-15T07:14:23;14.70;;;11.68;;
52668;SDS011;59898;52.786;6.892;2023-04-15T07:17:44;13.90;;;10.60;;
52668;SDS011;59898;52.786;6.892;2023-04-15T07:21:05;12.25;;;9.40;;
52668;SDS011;59898;52.786;6.892;2023-04-15T07:24:25;15.77;;;9.60;;
52668;SDS011;59898;52.786;6.892;2023-04-15T07:27:47;15.07;;;9.32;;
52668;SDS011;59898;52.786;6.892;2023-04-15T07:31:08;10.35;;;8.18;;
52668;SDS011;59898;52.786;6.892;2023-04-15T07:34:29;10.27;;;8.02;;
52668;SDS011;59898;52.786;6.892;2023-04-15T07:37:49;15.50;;;8.40;;
52668;SDS011;59898;52.786;6.892;2023-04-15T07:41:11;11.07;;;7.78;;
52668;SDS011;59898;52.786;6.892;2023-04-15T07:44:32;9.90;;;6.90;;
52668;SDS011;59898;52.786;6.892;2023-04-15T07:47:52;11.57;;;7.32;;
52668;SDS011;59898;52.786;6.892;2023-04-15T07:51:15;13.52;;;7.72;;
52668;SDS011;59898;52.786;6.892;2023-04-15T07:54:36;9.65;;;6.80;;
52668;SDS011;59898;52.786;6.892;2023-04-15T07:57:57;13.15;;;7.20;;
52668;SDS011;59898;52.786;6.892;2023-04-15T08:01:18;8.93;;;6.60;;
52668;SDS011;59898;52.786;6.892;2023-04-15T08:04:38;7.90;;;6.10;;
52668;SDS011;59898;52.786;6.892;2023-04-15T08:07:59;10.15;;;6.85;;
52668;SDS011;59898;52.786;6.892;2023-04-15T08:11:20;12.50;;;7.90;;
52668;SDS011;59898;52.786;6.892;2023-04-15T08:14:42;10.13;;;6.85;;
52668;SDS011;59898;52.786;6.892;2023-04-15T08:18:02;16.55;;;7.78;;
52668;SDS011;59898;52.786;6.892;2023-04-15T08:21:23;8.18;;;6.22;;
52668;SDS011;59898;52.786;6.892;2023-04-15T08:24:44;8.98;;;6.65;;
52668;SDS011;59898;52.786;6.892;2023-04-15T08:28:06;7.20;;;5.65;;
52668;SDS011;59898;52.786;6.892;2023-04-15T08:31:28;8.85;;;5.20;;
52668;SDS011;59898;52.786;6.892;2023-04-15T08:34:49;6.90;;;4.72;;
52668;SDS011;59898;52.786;6.892;2023-04-15T08:38:10;9.75;;;4.47;;
52668;SDS011;59898;52.786;6.892;2023-04-15T08:41:44;4.47;;;3.72;;
52668;SDS011;59898;52.786;6.892;2023-04-15T08:45:09;6.53;;;4.93;;
52668;SDS011;59898;52.786;6.892;2023-04-15T08:48:31;6.72;;;4.55;;
52668;SDS011;59898;52.786;6.892;2023-04-15T08:51:54;6.00;;;4.13;;
52668;SDS011;59898;52.786;6.892;2023-04-15T08:55:17;5.95;;;3.72;;
52668;SDS011;59898;52.786;6.892;2023-04-15T08:58:39;6.73;;;4.20;;
52668;SDS011;59898;52.786;6.892;2023-04-15T09:02:01;7.70;;;4.65;;
52668;SDS011;59898;52.786;6.892;2023-04-15T09:05:22;6.90;;;4.75;;
52668;SDS011;59898;52.786;6.892;2023-04-15T09:08:43;5.20;;;4.07;;
52668;SDS011;59898;52.786;6.892;2023-04-15T09:12:05;5.80;;;4.00;;
52668;SDS011;59898;52.786;6.892;2023-04-15T09:15:27;7.97;;;3.63;;
52668;SDS011;59898;52.786;6.892;2023-04-15T09:18:49;5.00;;;3.42;;
52668;SDS011;59898;52.786;6.892;2023-04-15T09:22:10;6.55;;;4.07;;
52668;SDS011;59898;52.786;6.892;2023-04-15T09:25:31;6.70;;;4.25;;
52668;SDS011;59898;52.786;6.892;2023-04-15T09:28:52;5.85;;;3.72;;
52668;SDS011;59898;52.786;6.892;2023-04-15T09:32:13;5.20;;;3.92;;
52668;SDS011;59898;52.786;6.892;2023-04-15T09:35:35;5.90;;;3.88;;
52668;SDS011;59898;52.786;6.892;2023-04-15T09:38:56;6.75;;;4.00;;
52668;SDS011;59898;52.786;6.892;2023-04-15T09:42:18;5.37;;;3.40;;
52668;SDS011;59898;52.786;6.892;2023-04-15T09:45:47;6.43;;;3.35;;
52668;SDS011;59898;52.786;6.892;2023-04-15T09:49:12;5.75;;;3.67;;
52668;SDS011;59898;52.786;6.892;2023-04-15T09:52:33;4.22;;;3.10;;
52668;SDS011;59898;52.786;6.892;2023-04-15T09:56:02;6.15;;;3.63;;
52668;SDS011;59898;52.786;6.892;2023-04-15T09:59:23;5.95;;;3.10;;
52668;SDS011;59898;52.786;6.892;2023-04-15T10:02:44;6.10;;;3.95;;
52668;SDS011;59898;52.786;6.892;2023-04-15T10:06:07;7.05;;;3.78;;
52668;SDS011;59898;52.786;6.892;2023-04-15T10:09:29;8.65;;;3.38;;
52668;SDS011;59898;52.786;6.892;2023-04-15T10:12:50;7.60;;;3.63;;
52668;SDS011;59898;52.786;6.892;2023-04-15T10:16:13;6.97;;;3.80;;
52668;SDS011;59898;52.786;6.892;2023-04-15T10:19:36;5.15;;;2.90;;
52668;SDS011;59898;52.786;6.892;2023-04-15T10:22:57;6.07;;;2.95;;
52668;SDS011;59898;52.786;6.892;2023-04-15T10:26:18;4.57;;;2.95;;
52668;SDS011;59898;52.786;6.892;2023-04-15T10:29:39;6.65;;;2.72;;
52668;SDS011;59898;52.786;6.892;2023-04-15T10:33:00;5.47;;;2.75;;
52668;SDS011;59898;52.786;6.892;2023-04-15T10:36:22;9.85;;;7.38;;
52668;SDS011;59898;52.786;6.892;2023-04-15T10:39:43;6.55;;;2.92;;
52668;SDS011;59898;52.786;6.892;2023-04-15T10:43:04;5.35;;;3.10;;
52668;SDS011;59898;52.786;6.892;2023-04-15T10:50:18;7.53;;;3.43;;
52668;SDS011;59898;52.786;6.892;2023-04-15T10:53:40;6.75;;;3.30;;
52668;SDS011;59898;52.786;6.892;2023-04-15T11:00:29;6.53;;;3.33;;
52668;SDS011;59898;52.786;6.892;2023-04-15T11:03:50;4.32;;;3.10;;
52668;SDS011;59898;52.786;6.892;2023-04-15T11:07:11;5.05;;;3.08;;
52668;SDS011;59898;52.786;6.892;2023-04-15T11:13:53;4.45;;;2.92;;
52668;SDS011;59898;52.786;6.892;2023-04-15T11:20:47;4.80;;;3.67;;
52668;SDS011;59898;52.786;6.892;2023-04-15T11:24:26;4.75;;;2.92;;
52668;SDS011;59898;52.786;6.892;2023-04-15T11:27:46;7.30;;;2.55;;
52668;SDS011;59898;52.786;6.892;2023-04-15T11:31:10;6.80;;;2.80;;
52668;SDS011;59898;52.786;6.892;2023-04-15T11:34:35;6.18;;;3.28;;
52668;SDS011;59898;52.786;6.892;2023-04-15T11:37:56;6.38;;;2.40;;
52668;SDS011;59898;52.786;6.892;2023-04-15T11:41:21;7.35;;;2.85;;
52668;SDS011;59898;52.786;6.892;2023-04-15T11:44:42;3.42;;;2.85;;
52668;SDS011;59898;52.786;6.892;2023-04-15T11:48:07;6.28;;;2.60;;
52668;SDS011;59898;52.786;6.892;2023-04-15T11:51:31;7.03;;;3.53;;
52668;SDS011;59898;52.786;6.892;2023-04-15T11:55:00;8.88;;;3.50;;
52668;SDS011;59898;52.786;6.892;2023-04-15T11:58:23;4.40;;;2.70;;
52668;SDS011;59898;52.786;6.892;2023-04-15T12:01:45;5.00;;;2.30;;
52668;SDS011;59898;52.786;6.892;2023-04-15T12:05:07;3.17;;;2.67;;
52668;SDS011;59898;52.786;6.892;2023-04-15T12:12:09;3.50;;;2.58;;
52668;SDS011;59898;52.786;6.892;2023-04-15T12:18:55;3.75;;;2.17;;
52668;SDS011;59898;52.786;6.892;2023-04-15T12:22:18;6.30;;;2.83;;
52668;SDS011;59898;52.786;6.892;2023-04-15T12:29:02;7.50;;;2.97;;
52668;SDS011;59898;52.786;6.892;2023-04-15T12:35:45;6.38;;;3.47;;
52668;SDS011;59898;52.786;6.892;2023-04-15T12:39:06;5.35;;;2.88;;
52668;SDS011;59898;52.786;6.892;2023-04-15T12:42:27;6.88;;;2.92;;
52668;SDS011;59898;52.786;6.892;2023-04-15T12:45:47;4.28;;;2.72;;
52668;SDS011;59898;52.786;6.892;2023-04-15T12:49:08;7.35;;;3.05;;
52668;SDS011;59898;52.786;6.892;2023-04-15T12:52:29;4.38;;;2.70;;
52668;SDS011;59898;52.786;6.892;2023-04-15T12:55:49;7.07;;;3.63;;
52668;SDS011;59898;52.786;6.892;2023-04-15T12:59:11;9.80;;;5.35;;
52668;SDS011;59898;52.786;6.892;2023-04-15T13:02:32;6.55;;;3.60;;
52668;SDS011;59898;52.786;6.892;2023-04-15T13:05:52;6.63;;;3.10;;
52668;SDS011;59898;52.786;6.892;2023-04-15T13:09:13;6.93;;;2.72;;
52668;SDS011;59898;52.786;6.892;2023-04-15T13:12:34;9.25;;;2.65;;
52668;SDS011;59898;52.786;6.892;2023-04-15T13:15:56;9.05;;;3.00;;
52668;SDS011;59898;52.786;6.892;2023-04-15T13:19:17;4.30;;;2.85;;
52668;SDS011;59898;52.786;6.892;2023-04-15T13:22:37;5.82;;;2.90;;
52668;SDS011;59898;52.786;6.892;2023-04-15T13:25:58;5.70;;;3.22;;
52668;SDS011;59898;52.786;6.892;2023-04-15T13:29:19;5.88;;;2.67;;
52668;SDS011;59898;52.786;6.892;2023-04-15T13:32:41;4.45;;;2.78;;
52668;SDS011;59898;52.786;6.892;2023-04-15T13:36:02;9.88;;;5.38;;
52668;SDS011;59898;52.786;6.892;2023-04-15T13:39:22;8.48;;;2.83;;
52668;SDS011;59898;52.786;6.892;2023-04-15T13:42:43;10.43;;;2.70;;
52668;SDS011;59898;52.786;6.892;2023-04-15T13:46:04;6.82;;;2.95;;
52668;SDS011;59898;52.786;6.892;2023-04-15T13:49:25;8.18;;;2.80;;
52668;SDS011;59898;52.786;6.892;2023-04-15T13:52:45;6.10;;;2.80;;
52668;SDS011;59898;52.786;6.892;2023-04-15T13:56:06;6.82;;;2.92;;
52668;SDS011;59898;52.786;6.892;2023-04-15T13:59:27;4.15;;;3.00;;
52668;SDS011;59898;52.786;6.892;2023-04-15T14:02:48;5.63;;;2.92;;
52668;SDS011;59898;52.786;6.892;2023-04-15T14:06:09;9.52;;;3.10;;
52668;SDS011;59898;52.786;6.892;2023-04-15T14:09:29;4.85;;;2.67;;
52668;SDS011;59898;52.786;6.892;2023-04-15T14:12:50;6.72;;;3.30;;
52668;SDS011;59898;52.786;6.892;2023-04-15T14:16:11;3.83;;;2.35;;
52668;SDS011;59898;52.786;6.892;2023-04-15T14:19:32;10.35;;;3.35;;
52668;SDS011;59898;52.786;6.892;2023-04-15T14:22:53;8.68;;;3.75;;
52668;SDS011;59898;52.786;6.892;2023-04-15T14:26:14;5.80;;;3.35;;
52668;SDS011;59898;52.786;6.892;2023-04-15T14:29:35;4.63;;;2.85;;
52668;SDS011;59898;52.786;6.892;2023-04-15T14:32:55;9.50;;;3.50;;
52668;SDS011;59898;52.786;6.892;2023-04-15T14:36:16;7.05;;;3.42;;
52668;SDS011;59898;52.786;6.892;2023-04-15T14:39:37;11.68;;;3.97;;
52668;SDS011;59898;52.786;6.892;2023-04-15T14:42:58;8.32;;;3.47;;
52668;SDS011;59898;52.786;6.892;2023-04-15T14:46:19;9.02;;;3.95;;
52668;SDS011;59898;52.786;6.892;2023-04-15T14:49:40;12.02;;;4.65;;
52668;SDS011;59898;52.786;6.892;2023-04-15T14:53:00;10.25;;;4.22;;
52668;SDS011;59898;52.786;6.892;2023-04-15T14:56:21;9.27;;;4.07;;
52668;SDS011;59898;52.786;6.892;2023-04-15T14:59:41;9.20;;;3.42;;
52668;SDS011;59898;52.786;6.892;2023-04-15T15:03:02;10.27;;;3.88;;
52668;SDS011;59898;52.786;6.892;2023-04-15T15:06:25;11.57;;;4.15;;
52668;SDS011;59898;52.786;6.892;2023-04-15T15:09:46;13.68;;;4.15;;
52668;SDS011;59898;52.786;6.892;2023-04-15T15:13:08;8.82;;;4.05;;
52668;SDS011;59898;52.786;6.892;2023-04-15T15:16:29;13.27;;;6.32;;
52668;SDS011;59898;52.786;6.892;2023-04-15T15:19:50;16.90;;;7.65;;
52668;SDS011;59898;52.786;6.892;2023-04-15T15:23:10;12.13;;;4.78;;
52668;SDS011;59898;52.786;6.892;2023-04-15T15:26:31;15.73;;;5.15;;
52668;SDS011;59898;52.786;6.892;2023-04-15T15:29:52;10.35;;;4.65;;
52668;SDS011;59898;52.786;6.892;2023-04-15T15:33:12;15.18;;;4.90;;
52668;SDS011;59898;52.786;6.892;2023-04-15T15:36:33;8.98;;;4.88;;
52668;SDS011;59898;52.786;6.892;2023-04-15T15:39:54;10.85;;;5.30;;
52668;SDS011;59898;52.786;6.892;2023-04-15T15:43:15;15.75;;;6.63;;
52668;SDS011;59898;52.786;6.892;2023-04-15T15:46:35;7.82;;;4.85;;
52668;SDS011;59898;52.786;6.892;2023-04-15T15:49:56;13.13;;;5.55;;
52668;SDS011;59898;52.786;6.892;2023-04-15T15:53:17;15.32;;;6.07;;
52668;SDS011;59898;52.786;6.892;2023-04-15T15:56:39;9.02;;;4.40;;
52668;SDS011;59898;52.786;6.892;2023-04-15T16:00:01;10.18;;;5.50;;
52668;SDS011;59898;52.786;6.892;2023-04-15T16:03:22;15.38;;;6.22;;
52668;SDS011;59898;52.786;6.892;2023-04-15T16:06:43;11.88;;;4.80;;
52668;SDS011;59898;52.786;6.892;2023-04-15T16:10:05;12.70;;;6.17;;
52668;SDS011;59898;52.786;6.892;2023-04-15T16:13:26;11.50;;;5.47;;
52668;SDS011;59898;52.786;6.892;2023-04-15T16:16:47;14.30;;;5.10;;
52668;SDS011;59898;52.786;6.892;2023-04-15T16:20:08;13.73;;;6.93;;
52668;SDS011;59898;52.786;6.892;2023-04-15T16:23:29;17.05;;;7.05;;
52668;SDS011;59898;52.786;6.892;2023-04-15T16:26:50;14.35;;;6.75;;
52668;SDS011;59898;52.786;6.892;2023-04-15T16:30:11;18.92;;;9.88;;
52668;SDS011;59898;52.786;6.892;2023-04-15T16:33:32;13.80;;;6.20;;
52668;SDS011;59898;52.786;6.892;2023-04-15T16:36:53;12.70;;;5.93;;
52668;SDS011;59898;52.786;6.892;2023-04-15T16:40:13;15.13;;;6.70;;
52668;SDS011;59898;52.786;6.892;2023-04-15T16:43:34;22.33;;;7.88;;
52668;SDS011;59898;52.786;6.892;2023-04-15T16:46:55;17.05;;;8.25;;
52668;SDS011;59898;52.786;6.892;2023-04-15T16:50:15;16.27;;;7.45;;
52668;SDS011;59898;52.786;6.892;2023-04-15T16:53:36;19.75;;;7.43;;
52668;SDS011;59898;52.786;6.892;2023-04-15T16:56:57;12.82;;;8.10;;
52668;SDS011;59898;52.786;6.892;2023-04-15T17:00:17;14.82;;;7.95;;
52668;SDS011;59898;52.786;6.892;2023-04-15T17:03:39;14.38;;;8.13;;
52668;SDS011;59898;52.786;6.892;2023-04-15T17:07:00;17.63;;;7.07;;
52668;SDS011;59898;52.786;6.892;2023-04-15T17:10:20;19.20;;;7.70;;
52668;SDS011;59898;52.786;6.892;2023-04-15T17:13:42;12.57;;;6.78;;
52668;SDS011;59898;52.786;6.892;2023-04-15T17:17:02;14.50;;;7.85;;
52668;SDS011;59898;52.786;6.892;2023-04-15T17:20:23;19.48;;;9.25;;
52668;SDS011;59898;52.786;6.892;2023-04-15T17:23:45;22.35;;;9.32;;
52668;SDS011;59898;52.786;6.892;2023-04-15T17:27:06;20.90;;;8.75;;
52668;SDS011;59898;52.786;6.892;2023-04-15T17:30:26;22.63;;;10.43;;
52668;SDS011;59898;52.786;6.892;2023-04-15T17:33:47;24.75;;;8.80;;
52668;SDS011;59898;52.786;6.892;2023-04-15T17:37:08;20.02;;;8.77;;
52668;SDS011;59898;52.786;6.892;2023-04-15T17:40:29;16.88;;;9.65;;
52668;SDS011;59898;52.786;6.892;2023-04-15T17:43:50;22.52;;;10.38;;
52668;SDS011;59898;52.786;6.892;2023-04-15T17:47:10;24.08;;;9.23;;
52668;SDS011;59898;52.786;6.892;2023-04-15T17:50:31;21.23;;;11.35;;
52668;SDS011;59898;52.786;6.892;2023-04-15T17:53:52;23.45;;;10.07;;
52668;SDS011;59898;52.786;6.892;2023-04-15T17:57:13;21.30;;;9.07;;
52668;SDS011;59898;52.786;6.892;2023-04-15T18:00:33;23.30;;;9.35;;
52668;SDS011;59898;52.786;6.892;2023-04-15T18:03:54;20.58;;;9.82;;
52668;SDS011;59898;52.786;6.892;2023-04-15T18:07:15;27.77;;;10.43;;
52668;SDS011;59898;52.786;6.892;2023-04-15T18:10:36;31.88;;;11.32;;
52668;SDS011;59898;52.786;6.892;2023-04-15T18:13:58;18.10;;;9.88;;
52668;SDS011;59898;52.786;6.892;2023-04-15T18:17:19;23.80;;;10.93;;
52668;SDS011;59898;52.786;6.892;2023-04-15T18:20:39;25.88;;;10.13;;
52668;SDS011;59898;52.786;6.892;2023-04-15T18:24:00;26.40;;;12.27;;
52668;SDS011;59898;52.786;6.892;2023-04-15T18:27:21;28.60;;;10.95;;
52668;SDS011;59898;52.786;6.892;2023-04-15T18:30:42;21.17;;;10.13;;
52668;SDS011;59898;52.786;6.892;2023-04-15T18:34:02;26.67;;;10.70;;
52668;SDS011;59898;52.786;6.892;2023-04-15T18:37:25;22.37;;;9.90;;
52668;SDS011;59898;52.786;6.892;2023-04-15T18:44:08;36.83;;;13.80;;
52668;SDS011;59898;52.786;6.892;2023-04-15T18:47:29;22.80;;;10.95;;
52668;SDS011;59898;52.786;6.892;2023-04-15T18:50:50;25.20;;;11.80;;
52668;SDS011;59898;52.786;6.892;2023-04-15T18:54:13;24.90;;;13.10;;
52668;SDS011;59898;52.786;6.892;2023-04-15T18:57:33;23.23;;;11.80;;
52668;SDS011;59898;52.786;6.892;2023-04-15T19:00:54;23.20;;;12.07;;
52668;SDS011;59898;52.786;6.892;2023-04-15T19:04:15;30.40;;;11.57;;
52668;SDS011;59898;52.786;6.892;2023-04-15T19:07:36;29.35;;;12.60;;
52668;SDS011;59898;52.786;6.892;2023-04-15T19:10:57;24.13;;;12.60;;
52668;SDS011;59898;52.786;6.892;2023-04-15T19:14:17;23.20;;;10.98;;
52668;SDS011;59898;52.786;6.892;2023-04-15T19:17:38;25.08;;;11.35;;
52668;SDS011;59898;52.786;6.892;2023-04-15T19:20:59;22.40;;;11.57;;
52668;SDS011;59898;52.786;6.892;2023-04-15T19:24:20;30.55;;;12.68;;
52668;SDS011;59898;52.786;6.892;2023-04-15T19:27:41;29.67;;;13.27;;
52668;SDS011;59898;52.786;6.892;2023-04-15T19:31:02;27.50;;;11.88;;
52668;SDS011;59898;52.786;6.892;2023-04-15T19:34:23;22.48;;;11.77;;
52668;SDS011;59898;52.786;6.892;2023-04-15T19:37:46;24.10;;;12.90;;
52668;SDS011;59898;52.786;6.892;2023-04-15T19:41:06;23.30;;;11.48;;
52668;SDS011;59898;52.786;6.892;2023-04-15T19:44:29;25.15;;;14.23;;
52668;SDS011;59898;52.786;6.892;2023-04-15T19:47:50;24.45;;;13.48;;
52668;SDS011;59898;52.786;6.892;2023-04-15T19:51:12;24.77;;;13.75;;
52668;SDS011;59898;52.786;6.892;2023-04-15T19:54:32;27.27;;;13.75;;
52668;SDS011;59898;52.786;6.892;2023-04-15T19:57:53;27.65;;;14.80;;
52668;SDS011;59898;52.786;6.892;2023-04-15T20:01:14;28.95;;;12.98;;
52668;SDS011;59898;52.786;6.892;2023-04-15T20:04:35;26.80;;;13.57;;
52668;SDS011;59898;52.786;6.892;2023-04-15T20:07:55;30.73;;;12.55;;
52668;SDS011;59898;52.786;6.892;2023-04-15T20:11:16;36.45;;;14.93;;
52668;SDS011;59898;52.786;6.892;2023-04-15T20:14:37;30.48;;;14.93;;
52668;SDS011;59898;52.786;6.892;2023-04-15T20:17:57;36.58;;;15.85;;
52668;SDS011;59898;52.786;6.892;2023-04-15T20:21:18;35.05;;;14.73;;
52668;SDS011;59898;52.786;6.892;2023-04-15T20:24:39;31.42;;;15.18;;
52668;SDS011;59898;52.786;6.892;2023-04-15T20:28:00;30.75;;;17.15;;
52668;SDS011;59898;52.786;6.892;2023-04-15T20:31:21;37.55;;;16.40;;